createdAt,value
2023-05-23T00:00:39.001Z,16.75
2023-05-23T00:03:07.041Z,16.62
2023-05-23T00:05:36.190Z,16.64
2023-05-23T00:08:03.991Z,16.59
2023-05-23T00:10:31.644Z,16.58
2023-05-23T00:12:59.514Z,16.64
2023-05-23T00:15:27.225Z,16.59
2023-05-23T00:17:54.877Z,16.37
2023-05-23T00:20:22.915Z,16.43
2023-05-23T00:22:52.947Z,16.44
2023-05-23T00:25:21.973Z,16.47
2023-05-23T00:27:49.910Z,16.59
2023-05-23T00:30:17.913Z,16.63
2023-05-23T00:32:45.906Z,16.57
2023-05-23T00:35:13.710Z,16.58
2023-05-23T00:37:41.473Z,16.61
2023-05-23T00:40:11.997Z,16.64
2023-05-23T00:42:39.817Z,16.51
2023-05-23T00:45:08.863Z,16.52
2023-05-23T00:47:36.715Z,16.40
2023-05-23T00:50:04.856Z,16.45
2023-05-23T00:52:32.612Z,16.54
2023-05-23T00:55:00.503Z,16.44
2023-05-23T00:57:29.521Z,16.42
2023-05-23T00:59:57.570Z,16.47
2023-05-23T01:02:25.548Z,16.49
2023-05-23T01:04:54.682Z,16.48
2023-05-23T01:07:22.692Z,16.48
2023-05-23T01:09:51.239Z,16.49
2023-05-23T01:12:28.156Z,16.49
2023-05-23T01:15:03.029Z,16.49
2023-05-23T01:17:43.708Z,16.54
2023-05-23T01:20:14.132Z,16.53
2023-05-23T01:23:15.388Z,16.47
2023-05-23T01:26:01.279Z,16.24
2023-05-23T01:28:34.613Z,16.38
2023-05-23T01:31:05.232Z,16.41
2023-05-23T01:33:33.965Z,16.47
2023-05-23T01:36:03.669Z,16.58
2023-05-23T01:38:31.688Z,16.46
2023-05-23T01:41:01.072Z,16.55
2023-05-23T01:43:30.520Z,16.57
2023-05-23T01:45:59.844Z,16.58
2023-05-23T01:48:29.101Z,16.55
2023-05-23T01:50:57.703Z,16.69
2023-05-23T01:53:27.716Z,16.68
2023-05-23T01:55:55.778Z,16.72
2023-05-23T01:58:24.473Z,16.80
2023-05-23T02:00:53.687Z,16.59
2023-05-23T02:03:21.694Z,16.47
2023-05-23T02:05:50.658Z,16.54
2023-05-23T02:08:18.393Z,16.51
2023-05-23T02:10:46.218Z,16.38
2023-05-23T02:13:13.876Z,16.35
2023-05-23T02:15:41.921Z,16.31
2023-05-23T02:18:11.175Z,16.18
2023-05-23T02:20:43.096Z,15.94
2023-05-23T02:23:11.149Z,15.88
2023-05-23T02:25:39.626Z,15.90
2023-05-23T02:28:07.865Z,16.02
2023-05-23T02:30:35.673Z,16.09
2023-05-23T02:33:06.453Z,16.05
2023-05-23T02:35:35.839Z,16.01
2023-05-23T02:38:03.610Z,16.01
2023-05-23T02:40:31.796Z,15.74
2023-05-23T02:42:59.450Z,15.84
2023-05-23T02:45:27.380Z,15.80
2023-05-23T02:47:55.198Z,15.84
2023-05-23T02:50:23.032Z,15.89
2023-05-23T02:52:52.164Z,15.89
2023-05-23T02:55:20.566Z,15.87
2023-05-23T02:57:51.283Z,15.93
2023-05-23T03:00:19.327Z,15.92
2023-05-23T03:02:52.059Z,15.83
2023-05-23T03:05:20.063Z,15.86
2023-05-23T03:07:48.114Z,15.59
2023-05-23T03:10:17.501Z,15.55
2023-05-23T03:12:45.903Z,15.62
2023-05-23T03:15:15.163Z,15.55
2023-05-23T03:17:44.814Z,15.61
2023-05-23T03:20:12.893Z,15.68
2023-05-23T03:22:43.683Z,15.77
2023-05-23T03:25:11.489Z,15.77
2023-05-23T03:27:40.904Z,15.80
2023-05-23T03:30:10.173Z,15.83
2023-05-23T03:32:38.152Z,15.84
2023-05-23T03:35:07.187Z,15.73
2023-05-23T03:37:35.010Z,15.67
2023-05-23T03:40:03.476Z,15.72
2023-05-23T03:42:31.620Z,15.83
2023-05-23T03:45:01.250Z,15.90
2023-05-23T03:47:29.095Z,15.99
2023-05-23T03:49:59.430Z,16.03
2023-05-23T03:52:28.664Z,16.06
2023-05-23T03:54:56.712Z,16.07
2023-05-23T03:57:24.673Z,16.13
2023-05-23T03:59:53.067Z,16.15
2023-05-23T04:02:23.260Z,16.09
2023-05-23T04:04:51.739Z,16.01
2023-05-23T04:07:19.899Z,15.82
2023-05-23T04:09:47.897Z,15.82
2023-05-23T04:12:16.269Z,15.69
2023-05-23T04:14:44.367Z,15.59
2023-05-23T04:17:12.946Z,15.74
2023-05-23T04:19:42.235Z,15.86
2023-05-23T04:22:10.598Z,15.93
2023-05-23T04:24:39.127Z,15.89
2023-05-23T04:27:07.755Z,16.02
2023-05-23T04:29:36.004Z,16.06
2023-05-23T04:32:03.744Z,16.11
2023-05-23T04:34:33.809Z,16.16
2023-05-23T04:37:03.692Z,16.30
2023-05-23T04:39:32.077Z,16.44
2023-05-23T04:42:18.690Z,16.57
2023-05-23T04:44:53.531Z,16.57
2023-05-23T04:47:28.994Z,16.80
2023-05-23T04:50:03.644Z,16.90
2023-05-23T04:52:34.062Z,16.93
2023-05-23T04:55:02.549Z,16.95
2023-05-23T04:57:30.497Z,17.05
2023-05-23T04:59:58.391Z,17.08
2023-05-23T05:02:28.056Z,17.16
2023-05-23T05:04:55.720Z,17.00
2023-05-23T05:07:23.793Z,17.02
2023-05-23T05:09:52.814Z,17.09
2023-05-23T05:12:20.509Z,16.94
2023-05-23T05:14:48.579Z,16.67
2023-05-23T05:17:16.926Z,17.02
2023-05-23T05:20:06.580Z,17.19
2023-05-23T05:22:36.746Z,17.22
2023-05-23T05:25:07.348Z,17.16
2023-05-23T05:27:38.009Z,17.23
2023-05-23T05:30:08.966Z,16.89
2023-05-23T05:32:51.820Z,16.85
2023-05-23T05:35:19.697Z,17.00
2023-05-23T05:37:48.239Z,16.95
2023-05-23T05:40:17.410Z,17.08
2023-05-23T05:42:45.586Z,17.12
2023-05-23T05:45:13.545Z,17.05
2023-05-23T05:47:43.483Z,17.01
2023-05-23T05:50:11.785Z,17.12
2023-05-23T05:52:40.042Z,17.18
2023-05-23T05:55:11.233Z,17.31
2023-05-23T05:57:41.986Z,17.40
2023-05-23T06:00:14.916Z,17.46
2023-05-23T06:02:51.862Z,17.27
2023-05-23T06:05:35.078Z,17.26
2023-05-23T06:08:02.760Z,17.33
2023-05-23T06:10:30.679Z,17.06
2023-05-23T06:13:00.737Z,17.30
2023-05-23T06:15:28.935Z,17.58
2023-05-23T06:17:56.741Z,17.35
2023-05-23T06:20:25.328Z,17.64
2023-05-23T06:22:54.430Z,17.58
2023-05-23T06:25:22.192Z,17.63
2023-05-23T06:27:50.131Z,17.32
2023-05-23T06:30:19.312Z,17.40
2023-05-23T06:32:47.156Z,17.61
2023-05-23T06:35:15.180Z,17.90
2023-05-23T06:37:45.626Z,17.63
2023-05-23T06:40:14.192Z,17.85
2023-05-23T06:42:42.099Z,17.91
2023-05-23T06:45:25.389Z,18.09
2023-05-23T06:47:53.385Z,18.34
2023-05-23T06:50:21.083Z,18.42
2023-05-23T06:52:50.884Z,18.20
2023-05-23T06:55:19.604Z,18.30
2023-05-23T06:57:52.076Z,18.17
2023-05-23T07:00:21.925Z,18.23
2023-05-23T07:03:04.178Z,18.39
2023-05-23T07:05:33.389Z,18.46
2023-05-23T07:08:01.587Z,18.19
2023-05-23T07:10:29.287Z,18.13
2023-05-23T07:13:05.246Z,18.39
2023-05-23T07:15:33.084Z,18.57
2023-05-23T07:18:11.301Z,18.01
2023-05-23T07:20:39.436Z,18.57
2023-05-23T07:23:14.664Z,18.99
2023-05-23T07:25:53.958Z,19.04
2023-05-23T07:28:33.368Z,18.98
2023-05-23T07:31:01.369Z,18.89
2023-05-23T07:33:31.251Z,19.39
2023-05-23T07:36:03.714Z,19.13
2023-05-23T07:38:31.431Z,19.10
2023-05-23T07:41:10.997Z,19.11
2023-05-23T07:43:40.579Z,18.95
2023-05-23T07:46:08.878Z,19.26
2023-05-23T07:48:38.547Z,19.43
2023-05-23T07:51:07.774Z,18.91
2023-05-23T07:53:40.128Z,18.90
2023-05-23T07:56:11.110Z,19.19
2023-05-23T07:58:42.095Z,20.00
2023-05-23T08:01:10.046Z,19.86
2023-05-23T08:03:59.017Z,19.44
2023-05-23T08:06:33.639Z,19.80
2023-05-23T08:09:06.755Z,19.62
2023-05-23T08:11:38.216Z,19.38
2023-05-23T08:14:07.407Z,19.52
2023-05-23T08:16:38.082Z,19.54
2023-05-23T08:19:18.794Z,19.34
2023-05-23T08:21:48.036Z,19.48
2023-05-23T08:24:15.930Z,19.73
2023-05-23T08:26:45.192Z,19.67
2023-05-23T08:29:14.589Z,19.59
2023-05-23T08:31:43.563Z,19.87
2023-05-23T08:34:14.216Z,19.49
2023-05-23T08:36:44.680Z,19.63
2023-05-23T08:39:17.187Z,19.35
2023-05-23T08:41:52.127Z,19.35
2023-05-23T08:44:19.801Z,19.25
2023-05-23T08:46:54.727Z,19.82
2023-05-23T08:49:41.335Z,19.75
2023-05-23T08:52:13.638Z,19.28
2023-05-23T08:54:45.264Z,19.37
2023-05-23T08:57:15.171Z,19.44
2023-05-23T08:59:49.352Z,19.56
2023-05-23T09:02:18.183Z,19.39
2023-05-23T09:04:47.622Z,19.82
2023-05-23T09:07:20.833Z,19.51
2023-05-23T09:09:50.905Z,19.69
2023-05-23T09:12:22.380Z,19.78
2023-05-23T09:14:51.762Z,19.40
2023-05-23T09:17:22.657Z,19.91
2023-05-23T09:19:51.855Z,20.06
2023-05-23T09:22:29.545Z,20.15
2023-05-23T09:25:10.087Z,20.15
2023-05-23T09:27:40.376Z,20.37
2023-05-23T09:30:09.850Z,20.29
2023-05-23T09:32:37.731Z,20.36
2023-05-23T09:35:12.122Z,20.36
2023-05-23T09:37:46.954Z,20.58
2023-05-23T09:40:16.385Z,20.70
2023-05-23T09:42:52.428Z,21.14
2023-05-23T09:45:20.130Z,21.52
2023-05-23T09:47:51.054Z,22.16
2023-05-23T09:50:18.967Z,21.78
2023-05-23T09:52:49.233Z,21.78
2023-05-23T09:55:17.051Z,21.77
2023-05-23T09:57:48.244Z,22.04
2023-05-23T10:00:17.788Z,22.24
2023-05-23T10:03:10.913Z,22.56
2023-05-23T10:05:42.008Z,22.37
2023-05-23T10:08:15.202Z,21.67
2023-05-23T10:11:38.464Z,21.71
2023-05-23T10:14:08.222Z,21.93
2023-05-23T10:16:42.653Z,21.81
2023-05-23T10:19:18.620Z,22.30
2023-05-23T10:21:51.984Z,23.24
2023-05-23T10:24:22.243Z,23.67
2023-05-23T10:26:50.212Z,24.37
2023-05-23T10:29:17.985Z,25.18
2023-05-23T10:31:46.542Z,25.34
2023-05-23T10:34:24.595Z,23.80
2023-05-23T10:37:00.467Z,23.13
2023-05-23T10:39:55.940Z,22.35
2023-05-23T10:42:36.658Z,22.62
2023-05-23T10:45:21.273Z,23.37
2023-05-23T10:47:51.156Z,23.39
2023-05-23T10:50:33.791Z,23.35
2023-05-23T10:53:03.213Z,23.59
2023-05-23T10:55:35.105Z,23.92
2023-05-23T10:58:17.006Z,24.17
2023-05-23T11:00:53.537Z,24.99
2023-05-23T11:03:33.716Z,24.48
2023-05-23T11:06:02.184Z,24.58
2023-05-23T11:08:46.870Z,24.58
2023-05-23T11:11:17.182Z,25.17
2023-05-23T11:14:00.564Z,24.30
2023-05-23T11:16:30.474Z,23.42
2023-05-23T11:19:28.037Z,23.30
2023-05-23T11:21:59.534Z,23.46
2023-05-23T11:24:51.881Z,23.60
2023-05-23T11:27:27.630Z,23.89
2023-05-23T11:30:00.502Z,24.37
2023-05-23T11:32:32.646Z,24.92
2023-05-23T11:35:01.323Z,24.42
2023-05-23T11:37:29.722Z,23.94
2023-05-23T11:39:57.522Z,23.77
2023-05-23T11:42:26.845Z,23.05
2023-05-23T11:44:54.899Z,23.86
2023-05-23T11:47:22.607Z,23.30
2023-05-23T11:49:50.451Z,23.51
2023-05-23T11:52:18.095Z,24.06
2023-05-23T11:54:45.919Z,24.60
2023-05-23T11:57:14.929Z,23.68
2023-05-23T11:59:44.041Z,23.66
2023-05-23T12:02:11.817Z,23.31
2023-05-23T12:04:39.893Z,23.87
2023-05-23T12:07:08.321Z,24.27
2023-05-23T12:09:43.560Z,24.55
2023-05-23T12:12:11.628Z,24.01
2023-05-23T12:14:44.918Z,23.99
2023-05-23T12:17:14.735Z,24.51
2023-05-23T12:19:47.762Z,24.94
2023-05-23T12:22:15.881Z,24.76
2023-05-23T12:24:47.503Z,24.68
2023-05-23T12:27:15.220Z,24.68
2023-05-23T12:29:42.925Z,24.76
2023-05-23T12:32:10.607Z,24.55
2023-05-23T12:34:43.723Z,23.42
2023-05-23T12:39:45.710Z,23.25
2023-05-23T12:42:13.591Z,23.14
2023-05-23T12:44:43.279Z,23.36
2023-05-23T12:47:11.359Z,23.33
2023-05-23T12:49:39.442Z,23.82
2023-05-23T12:52:08.655Z,24.42
2023-05-23T12:54:36.638Z,24.93
2023-05-23T12:57:04.542Z,24.99
2023-05-23T12:59:32.214Z,25.11
2023-05-23T13:02:00.505Z,24.72
2023-05-23T13:04:30.188Z,24.92
2023-05-23T13:06:59.789Z,25.26
2023-05-23T13:09:28.824Z,25.45
2023-05-23T13:11:57.174Z,25.70
2023-05-23T13:14:24.832Z,25.04
2023-05-23T13:16:53.130Z,24.88
2023-05-23T13:19:20.832Z,24.33
2023-05-23T13:21:50.002Z,24.17
2023-05-23T13:24:17.831Z,24.50
2023-05-23T13:26:46.847Z,24.74
2023-05-23T13:29:14.520Z,24.92
2023-05-23T13:31:42.615Z,24.95
2023-05-23T13:34:10.481Z,25.17
2023-05-23T13:36:38.152Z,25.34
2023-05-23T13:39:05.970Z,25.61
2023-05-23T13:41:33.727Z,25.98
2023-05-23T13:44:02.772Z,26.45
2023-05-23T13:46:30.679Z,26.90
2023-05-23T13:48:58.675Z,26.57
2023-05-23T13:51:26.362Z,26.65
2023-05-23T13:53:54.048Z,26.86
2023-05-23T13:56:21.834Z,27.21
2023-05-23T13:58:49.883Z,27.53
2023-05-23T14:01:18.926Z,27.81
2023-05-23T14:03:46.921Z,27.92
2023-05-23T14:06:14.562Z,27.91
2023-05-23T14:08:42.571Z,26.93
2023-05-23T14:11:10.969Z,27.53
2023-05-23T14:13:39.227Z,27.71
2023-05-23T14:16:07.180Z,27.62
2023-05-23T14:18:36.437Z,27.75
2023-05-23T14:21:04.203Z,27.71
2023-05-23T14:23:32.121Z,26.72
2023-05-23T14:25:59.899Z,26.69
2023-05-23T14:28:27.554Z,26.25
2023-05-23T14:30:55.767Z,26.70
2023-05-23T14:33:23.963Z,27.27
2023-05-23T14:35:53.198Z,27.40
2023-05-23T14:38:21.115Z,27.74
2023-05-23T14:40:49.725Z,27.03
2023-05-23T14:43:17.441Z,26.89
2023-05-23T14:45:45.415Z,26.86
2023-05-23T14:48:13.357Z,27.13
2023-05-23T14:50:42.550Z,26.49
2023-05-23T14:53:11.594Z,26.46
2023-05-23T14:55:39.513Z,27.16
2023-05-23T14:58:07.234Z,26.76
2023-05-23T15:00:35.153Z,27.23
2023-05-23T15:03:03.320Z,27.73
2023-05-23T15:05:31.253Z,26.91
2023-05-23T15:07:58.957Z,26.56
2023-05-23T15:10:27.996Z,26.76
2023-05-23T15:12:55.730Z,26.30
2023-05-23T15:15:23.894Z,26.84
2023-05-23T15:17:52.282Z,27.27
2023-05-23T15:20:20.140Z,27.13
2023-05-23T15:22:47.788Z,27.37
2023-05-23T15:25:16.011Z,27.73
2023-05-23T15:27:45.626Z,27.96
2023-05-23T15:30:13.712Z,27.94
2023-05-23T15:32:41.447Z,28.42
2023-05-23T15:35:09.884Z,28.49
2023-05-23T15:37:37.643Z,28.01
2023-05-23T15:40:06.248Z,26.96
2023-05-23T15:42:33.995Z,27.87
2023-05-23T15:45:03.072Z,28.17
2023-05-23T15:47:30.893Z,28.36
2023-05-23T15:49:58.602Z,28.55
2023-05-23T15:52:26.337Z,28.82
2023-05-23T15:54:53.996Z,28.92
2023-05-23T15:57:22.063Z,29.34
2023-05-23T15:59:49.768Z,29.62
2023-05-23T16:02:19.042Z,29.86
2023-05-23T16:04:46.732Z,30.02
2023-05-23T16:07:15.849Z,30.17
2023-05-23T16:09:45.384Z,30.17
2023-05-23T16:12:13.283Z,30.02
2023-05-23T16:14:40.938Z,29.72
2023-05-23T16:17:08.612Z,29.18
2023-05-23T16:19:37.907Z,28.79
2023-05-23T16:22:06.210Z,28.40
2023-05-23T16:24:33.990Z,27.92
2023-05-23T16:27:02.253Z,27.67
2023-05-23T16:29:30.030Z,27.58
2023-05-23T16:31:57.769Z,27.41
2023-05-23T16:34:25.702Z,27.38
2023-05-23T16:36:54.700Z,27.21
2023-05-23T16:39:22.373Z,27.13
2023-05-23T16:41:50.023Z,27.21
2023-05-23T16:44:17.855Z,27.36
2023-05-23T16:46:45.964Z,27.36
2023-05-23T16:49:13.759Z,27.31
2023-05-23T16:51:41.390Z,27.22
2023-05-23T16:54:10.653Z,27.21
2023-05-23T16:56:39.128Z,26.77
2023-05-23T16:59:07.168Z,26.19
2023-05-23T17:01:35.093Z,25.72
2023-05-23T17:04:02.829Z,25.64
2023-05-23T17:06:31.324Z,25.12
2023-05-23T17:08:59.121Z,25.04
2023-05-23T17:11:28.134Z,25.30
2023-05-23T17:13:56.063Z,25.59
2023-05-23T17:16:24.136Z,25.86
2023-05-23T17:18:51.961Z,25.99
2023-05-23T17:21:19.647Z,25.91
2023-05-23T17:23:47.318Z,25.60
2023-05-23T17:26:15.818Z,25.35
2023-05-23T17:28:46.752Z,24.93
2023-05-23T17:31:14.460Z,24.73
2023-05-23T17:33:42.149Z,24.48
2023-05-23T17:36:10.002Z,24.30
2023-05-23T17:38:38.526Z,24.09
2023-05-23T17:41:06.630Z,23.96
2023-05-23T17:43:34.295Z,23.90
2023-05-23T17:46:03.648Z,23.82
2023-05-23T17:48:45.195Z,23.71
2023-05-23T17:51:14.309Z,23.60
2023-05-23T17:53:42.190Z,23.44
2023-05-23T17:56:10.424Z,23.32
2023-05-23T17:58:40.259Z,23.10
2023-05-23T18:01:11.614Z,22.92
2023-05-23T18:03:39.401Z,22.79
2023-05-23T18:06:07.298Z,22.71
2023-05-23T18:08:35.191Z,22.68
2023-05-23T18:11:02.866Z,22.57
2023-05-23T18:13:30.534Z,22.45
2023-05-23T18:15:58.454Z,22.34
2023-05-23T18:18:27.675Z,22.22
2023-05-23T18:20:55.416Z,22.17
2023-05-23T18:23:23.126Z,22.06
2023-05-23T18:25:50.759Z,21.95
2023-05-23T18:28:18.414Z,21.87
2023-05-23T18:30:46.222Z,21.76
2023-05-23T18:33:14.127Z,21.65
2023-05-23T18:35:43.385Z,21.55
2023-05-23T18:38:11.657Z,21.39
2023-05-23T18:40:39.570Z,21.22
2023-05-23T18:43:07.468Z,21.09
2023-05-23T18:45:36.903Z,20.95
2023-05-23T18:48:04.621Z,20.86
2023-05-23T18:50:32.525Z,20.74
2023-05-23T18:53:01.535Z,20.69
2023-05-23T18:55:29.361Z,20.63
2023-05-23T18:57:58.957Z,20.54
2023-05-23T19:00:27.057Z,20.44
2023-05-23T19:02:54.821Z,20.35
2023-05-23T19:05:22.930Z,20.24
2023-05-23T19:07:50.576Z,20.12
2023-05-23T19:10:20.073Z,20.04
2023-05-23T19:12:47.752Z,19.96
2023-05-23T19:15:15.694Z,19.93
2023-05-23T19:17:43.410Z,19.86
2023-05-23T19:20:12.913Z,19.79
2023-05-23T19:22:50.764Z,19.71
2023-05-23T19:25:21.533Z,19.66
2023-05-23T19:27:49.288Z,19.64
2023-05-23T19:30:17.000Z,19.56
2023-05-23T19:32:45.069Z,19.53
2023-05-23T19:35:14.836Z,19.45
2023-05-23T19:37:44.602Z,19.39
2023-05-23T19:40:13.369Z,19.34
2023-05-23T19:42:42.399Z,19.25
2023-05-23T19:45:10.790Z,19.19
2023-05-23T19:47:38.569Z,19.15
2023-05-23T19:50:07.215Z,19.08
2023-05-23T19:52:34.886Z,18.94
2023-05-23T19:55:03.687Z,18.86
2023-05-23T19:57:32.377Z,18.77
2023-05-23T20:00:01.574Z,18.65
2023-05-23T20:02:32.192Z,18.51
2023-05-23T20:04:59.895Z,18.41
2023-05-23T20:07:27.559Z,18.31
2023-05-23T20:09:56.200Z,18.21
2023-05-23T20:12:24.346Z,18.13
2023-05-23T20:14:52.419Z,18.03
2023-05-23T20:17:21.444Z,17.94
2023-05-23T20:19:49.103Z,17.88
2023-05-23T20:22:16.758Z,17.80
2023-05-23T20:24:44.631Z,17.75
2023-05-23T20:27:12.354Z,17.60
2023-05-23T20:29:40.074Z,17.53
2023-05-23T20:32:07.822Z,17.47
2023-05-23T20:34:37.421Z,17.40
2023-05-23T20:37:06.082Z,17.33
2023-05-23T20:39:33.731Z,17.27
2023-05-23T20:42:01.439Z,17.16
2023-05-23T20:44:29.253Z,17.14
2023-05-23T20:46:57.647Z,17.06
2023-05-23T20:49:26.877Z,16.90
2023-05-23T20:51:55.940Z,16.85
2023-05-23T20:54:24.415Z,16.77
2023-05-23T20:56:53.777Z,16.70
2023-05-23T20:59:22.164Z,16.65
2023-05-23T21:01:49.840Z,16.60
2023-05-23T21:04:18.820Z,16.46
2023-05-23T21:06:46.621Z,16.45
2023-05-23T21:09:16.471Z,16.39
2023-05-23T21:11:44.162Z,16.37
2023-05-23T21:14:11.868Z,16.37
2023-05-23T21:16:39.585Z,16.33
2023-05-23T21:19:07.320Z,16.33
2023-05-23T21:21:35.131Z,16.31
2023-05-23T21:24:02.912Z,16.33
2023-05-23T21:26:31.956Z,16.33
2023-05-23T21:28:59.654Z,16.34
2023-05-23T21:31:40.348Z,16.37
2023-05-23T21:34:22.446Z,16.34
2023-05-23T21:36:52.399Z,16.30
2023-05-23T21:39:20.119Z,16.25
2023-05-23T21:41:49.132Z,16.21
2023-05-23T21:44:17.569Z,16.16
2023-05-23T21:46:45.801Z,15.75
2023-05-23T21:49:13.915Z,15.57
2023-05-23T21:51:42.076Z,15.60
2023-05-23T21:54:09.746Z,15.78
2023-05-23T21:56:37.530Z,16.02
2023-05-23T21:59:06.599Z,16.07
2023-05-23T22:01:34.457Z,16.05
2023-05-23T22:04:02.473Z,16.03
2023-05-23T22:06:30.244Z,16.06
2023-05-23T22:08:57.901Z,16.03
2023-05-23T22:11:29.645Z,16.06
2023-05-23T22:13:57.563Z,16.05
2023-05-23T22:16:26.640Z,16.07
2023-05-23T22:18:58.191Z,16.06
2023-05-23T22:21:26.336Z,16.09
2023-05-23T22:23:54.513Z,16.06
2023-05-23T22:26:23.210Z,15.94
2023-05-23T22:28:51.035Z,15.88
2023-05-23T22:31:18.690Z,15.88
2023-05-23T22:33:48.188Z,15.88
2023-05-23T22:36:15.857Z,15.86
2023-05-23T22:38:43.702Z,15.84
2023-05-23T22:41:11.918Z,15.83
2023-05-23T22:43:40.048Z,15.79
2023-05-23T22:46:08.791Z,15.77
2023-05-23T22:48:36.955Z,15.70
2023-05-23T22:51:07.914Z,15.62
2023-05-23T22:53:35.941Z,15.61
2023-05-23T22:56:04.145Z,15.56
2023-05-23T22:58:31.821Z,15.49
2023-05-23T23:00:59.727Z,15.38
2023-05-23T23:03:27.463Z,15.37
2023-05-23T23:05:55.485Z,15.34
2023-05-23T23:08:24.476Z,15.31
2023-05-23T23:10:52.290Z,15.32
2023-05-23T23:13:19.948Z,15.34
2023-05-23T23:15:49.655Z,15.33
2023-05-23T23:18:18.814Z,15.28
2023-05-23T23:20:47.888Z,15.28
2023-05-23T23:23:15.709Z,15.30
2023-05-23T23:25:50.742Z,15.24
2023-05-23T23:28:18.758Z,15.26
2023-05-23T23:30:47.292Z,15.25
2023-05-23T23:33:15.766Z,15.23
2023-05-23T23:35:45.716Z,15.24
2023-05-23T23:38:13.379Z,15.19
2023-05-23T23:40:44.349Z,15.23
2023-05-23T23:43:13.965Z,15.24
2023-05-23T23:45:41.992Z,15.24
2023-05-23T23:48:10.075Z,15.24
2023-05-23T23:50:38.698Z,15.28
2023-05-23T23:53:06.460Z,15.29
2023-05-23T23:55:34.686Z,15.34
2023-05-23T23:58:02.481Z,15.38
